sensor_id;sensor_type;location;lat;lon;timestamp;temperature;humidity
64817;DHT22;53289;45.602;11.904;2022-07-23T00:00:34;23.50;62.10
64817;DHT22;53289;45.602;11.904;2022-07-23T00:03:00;23.40;62.40
64817;DHT22;53289;45.602;11.904;2022-07-23T00:05:26;23.40;62.40
64817;DHT22;53289;45.602;11.904;2022-07-23T00:07:52;23.40;62.60
64817;DHT22;53289;45.602;11.904;2022-07-23T00:10:18;23.40;62.30
64817;DHT22;53289;45.602;11.904;2022-07-23T00:12:44;23.40;62.40
64817;DHT22;53289;45.602;11.904;2022-07-23T00:15:10;23.40;62.60
64817;DHT22;53289;45.602;11.904;2022-07-23T00:17:36;23.40;62.80
64817;DHT22;53289;45.602;11.904;2022-07-23T00:20:03;23.30;62.70
64817;DHT22;53289;45.602;11.904;2022-07-23T00:22:29;23.20;62.80
64817;DHT22;53289;45.602;11.904;2022-07-23T00:24:56;23.20;62.90
64817;DHT22;53289;45.602;11.904;2022-07-23T00:27:22;23.10;62.90
64817;DHT22;53289;45.602;11.904;2022-07-23T00:29:49;23.10;63.00
64817;DHT22;53289;45.602;11.904;2022-07-23T00:32:15;23.10;63.00
64817;DHT22;53289;45.602;11.904;2022-07-23T00:34:42;23.10;63.00
64817;DHT22;53289;45.602;11.904;2022-07-23T00:37:07;23.10;62.90
64817;DHT22;53289;45.602;11.904;2022-07-23T00:39:33;23.10;63.20
64817;DHT22;53289;45.602;11.904;2022-07-23T00:41:59;23.00;63.10
64817;DHT22;53289;45.602;11.904;2022-07-23T00:44:27;23.00;63.30
64817;DHT22;53289;45.602;11.904;2022-07-23T00:46:55;23.00;63.30
64817;DHT22;53289;45.602;11.904;2022-07-23T00:49:24;22.90;63.30
64817;DHT22;53289;45.602;11.904;2022-07-23T00:51:51;23.00;63.40
64817;DHT22;53289;45.602;11.904;2022-07-23T00:54:18;23.00;63.50
64817;DHT22;53289;45.602;11.904;2022-07-23T00:56:46;23.00;63.40
64817;DHT22;53289;45.602;11.904;2022-07-23T00:59:13;22.90;63.30
64817;DHT22;53289;45.602;11.904;2022-07-23T01:01:39;22.90;63.40
64817;DHT22;53289;45.602;11.904;2022-07-23T01:04:06;22.90;63.60
64817;DHT22;53289;45.602;11.904;2022-07-23T01:06:37;22.90;63.80
64817;DHT22;53289;45.602;11.904;2022-07-23T01:09:05;22.90;64.00
64817;DHT22;53289;45.602;11.904;2022-07-23T01:11:34;22.90;64.00
64817;DHT22;53289;45.602;11.904;2022-07-23T01:14:14;22.80;64.00
64817;DHT22;53289;45.602;11.904;2022-07-23T01:16:42;22.80;64.40
64817;DHT22;53289;45.602;11.904;2022-07-23T01:19:09;22.70;64.50
64817;DHT22;53289;45.602;11.904;2022-07-23T01:21:44;22.70;64.60
64817;DHT22;53289;45.602;11.904;2022-07-23T01:24:11;22.60;64.70
64817;DHT22;53289;45.602;11.904;2022-07-23T01:26:38;22.60;64.60
64817;DHT22;53289;45.602;11.904;2022-07-23T01:29:05;22.60;64.60
64817;DHT22;53289;45.602;11.904;2022-07-23T01:31:31;22.60;64.70
64817;DHT22;53289;45.602;11.904;2022-07-23T01:33:58;22.60;64.60
64817;DHT22;53289;45.602;11.904;2022-07-23T01:36:24;22.60;64.90
64817;DHT22;53289;45.602;11.904;2022-07-23T01:38:50;22.60;65.00
64817;DHT22;53289;45.602;11.904;2022-07-23T01:41:17;22.60;64.90
64817;DHT22;53289;45.602;11.904;2022-07-23T01:43:43;22.60;64.80
64817;DHT22;53289;45.602;11.904;2022-07-23T01:46:09;22.60;64.90
64817;DHT22;53289;45.602;11.904;2022-07-23T01:48:35;22.50;65.20
64817;DHT22;53289;45.602;11.904;2022-07-23T01:51:02;22.40;65.30
64817;DHT22;53289;45.602;11.904;2022-07-23T01:53:28;22.40;65.30
64817;DHT22;53289;45.602;11.904;2022-07-23T01:55:58;22.40;65.50
64817;DHT22;53289;45.602;11.904;2022-07-23T01:58:25;22.40;65.50
64817;DHT22;53289;45.602;11.904;2022-07-23T02:00:51;22.30;65.60
64817;DHT22;53289;45.602;11.904;2022-07-23T02:03:17;22.20;65.70
64817;DHT22;53289;45.602;11.904;2022-07-23T02:05:43;22.20;65.80
64817;DHT22;53289;45.602;11.904;2022-07-23T02:08:09;22.10;65.90
64817;DHT22;53289;45.602;11.904;2022-07-23T02:10:35;22.10;66.30
64817;DHT22;53289;45.602;11.904;2022-07-23T02:13:01;22.10;66.50
64817;DHT22;53289;45.602;11.904;2022-07-23T02:15:27;22.00;66.30
64817;DHT22;53289;45.602;11.904;2022-07-23T02:17:54;22.00;66.20
64817;DHT22;53289;45.602;11.904;2022-07-23T02:20:21;22.00;66.30
64817;DHT22;53289;45.602;11.904;2022-07-23T02:22:48;21.90;66.30
64817;DHT22;53289;45.602;11.904;2022-07-23T02:25:14;22.00;66.20
64817;DHT22;53289;45.602;11.904;2022-07-23T02:27:40;22.00;65.90
64817;DHT22;53289;45.602;11.904;2022-07-23T02:30:07;22.00;65.90
64817;DHT22;53289;45.602;11.904;2022-07-23T02:32:34;22.00;66.10
64817;DHT22;53289;45.602;11.904;2022-07-23T02:35:00;22.00;66.00
64817;DHT22;53289;45.602;11.904;2022-07-23T02:37:27;21.90;66.00
64817;DHT22;53289;45.602;11.904;2022-07-23T02:39:53;21.90;66.00
64817;DHT22;53289;45.602;11.904;2022-07-23T02:42:20;21.90;66.20
64817;DHT22;53289;45.602;11.904;2022-07-23T02:44:46;21.90;66.20
64817;DHT22;53289;45.602;11.904;2022-07-23T02:47:12;21.90;66.20
64817;DHT22;53289;45.602;11.904;2022-07-23T02:49:38;21.90;66.10
64817;DHT22;53289;45.602;11.904;2022-07-23T02:52:04;21.90;66.00
64817;DHT22;53289;45.602;11.904;2022-07-23T02:54:30;21.90;65.90
64817;DHT22;53289;45.602;11.904;2022-07-23T02:56:56;21.90;66.00
64817;DHT22;53289;45.602;11.904;2022-07-23T02:59:22;21.90;66.10
64817;DHT22;53289;45.602;11.904;2022-07-23T03:01:48;21.90;66.10
64817;DHT22;53289;45.602;11.904;2022-07-23T03:04:14;21.80;66.10
64817;DHT22;53289;45.602;11.904;2022-07-23T03:06:40;21.80;66.00
64817;DHT22;53289;45.602;11.904;2022-07-23T03:09:06;21.80;65.90
64817;DHT22;53289;45.602;11.904;2022-07-23T03:11:32;21.80;66.20
64817;DHT22;53289;45.602;11.904;2022-07-23T03:13:57;21.80;66.00
64817;DHT22;53289;45.602;11.904;2022-07-23T03:16:23;21.80;66.00
64817;DHT22;53289;45.602;11.904;2022-07-23T03:18:49;21.80;65.90
64817;DHT22;53289;45.602;11.904;2022-07-23T03:21:15;21.80;65.80
64817;DHT22;53289;45.602;11.904;2022-07-23T03:23:41;21.90;66.00
64817;DHT22;53289;45.602;11.904;2022-07-23T03:26:07;21.80;66.00
64817;DHT22;53289;45.602;11.904;2022-07-23T03:28:33;21.80;66.00
64817;DHT22;53289;45.602;11.904;2022-07-23T03:30:59;21.80;66.40
64817;DHT22;53289;45.602;11.904;2022-07-23T03:33:25;21.80;66.60
64817;DHT22;53289;45.602;11.904;2022-07-23T03:35:50;21.70;66.40
64817;DHT22;53289;45.602;11.904;2022-07-23T03:38:16;21.70;66.10
64817;DHT22;53289;45.602;11.904;2022-07-23T03:40:42;21.70;66.20
64817;DHT22;53289;45.602;11.904;2022-07-23T03:43:08;21.70;66.40
64817;DHT22;53289;45.602;11.904;2022-07-23T03:45:34;21.60;66.50
64817;DHT22;53289;45.602;11.904;2022-07-23T03:48:00;21.60;66.60
64817;DHT22;53289;45.602;11.904;2022-07-23T03:50:26;21.60;66.70
64817;DHT22;53289;45.602;11.904;2022-07-23T03:52:52;21.50;67.00
64817;DHT22;53289;45.602;11.904;2022-07-23T03:55:19;21.50;67.10
64817;DHT22;53289;45.602;11.904;2022-07-23T03:57:45;21.50;66.90
64817;DHT22;53289;45.602;11.904;2022-07-23T04:00:12;21.50;67.00
64817;DHT22;53289;45.602;11.904;2022-07-23T04:02:39;21.50;67.40
64817;DHT22;53289;45.602;11.904;2022-07-23T04:05:06;21.40;67.40
64817;DHT22;53289;45.602;11.904;2022-07-23T04:07:32;21.40;67.60
64817;DHT22;53289;45.602;11.904;2022-07-23T04:09:58;21.40;67.60
64817;DHT22;53289;45.602;11.904;2022-07-23T04:12:24;21.40;67.70
64817;DHT22;53289;45.602;11.904;2022-07-23T04:14:50;21.40;67.70
64817;DHT22;53289;45.602;11.904;2022-07-23T04:17:16;21.40;67.70
64817;DHT22;53289;45.602;11.904;2022-07-23T04:19:42;21.50;67.90
64817;DHT22;53289;45.602;11.904;2022-07-23T04:22:10;21.50;67.80
64817;DHT22;53289;45.602;11.904;2022-07-23T04:24:37;21.50;67.80
64817;DHT22;53289;45.602;11.904;2022-07-23T04:27:04;21.60;67.90
64817;DHT22;53289;45.602;11.904;2022-07-23T04:29:30;21.60;67.70
64817;DHT22;53289;45.602;11.904;2022-07-23T04:31:56;21.70;68.00
64817;DHT22;53289;45.602;11.904;2022-07-23T04:34:23;21.70;67.90
64817;DHT22;53289;45.602;11.904;2022-07-23T04:36:48;21.70;67.80
64817;DHT22;53289;45.602;11.904;2022-07-23T04:39:14;21.80;67.70
64817;DHT22;53289;45.602;11.904;2022-07-23T04:41:40;21.80;67.90
64817;DHT22;53289;45.602;11.904;2022-07-23T04:44:06;21.90;67.90
64817;DHT22;53289;45.602;11.904;2022-07-23T04:46:32;22.00;68.00
64817;DHT22;53289;45.602;11.904;2022-07-23T04:48:58;22.00;67.90
64817;DHT22;53289;45.602;11.904;2022-07-23T04:51:24;22.00;67.70
64817;DHT22;53289;45.602;11.904;2022-07-23T04:53:50;22.10;67.70
64817;DHT22;53289;45.602;11.904;2022-07-23T04:56:17;22.30;68.10
64817;DHT22;53289;45.602;11.904;2022-07-23T04:58:43;22.30;68.80
64817;DHT22;53289;45.602;11.904;2022-07-23T05:01:09;22.40;68.30
64817;DHT22;53289;45.602;11.904;2022-07-23T05:03:35;22.40;68.00
64817;DHT22;53289;45.602;11.904;2022-07-23T05:06:01;22.50;67.50
64817;DHT22;53289;45.602;11.904;2022-07-23T05:08:28;22.60;67.60
64817;DHT22;53289;45.602;11.904;2022-07-23T05:10:54;22.80;67.40
64817;DHT22;53289;45.602;11.904;2022-07-23T05:13:21;22.90;67.00
64817;DHT22;53289;45.602;11.904;2022-07-23T05:15:47;23.00;66.80
64817;DHT22;53289;45.602;11.904;2022-07-23T05:18:13;23.00;66.60
64817;DHT22;53289;45.602;11.904;2022-07-23T05:20:39;23.20;66.20
64817;DHT22;53289;45.602;11.904;2022-07-23T05:23:06;23.30;66.00
64817;DHT22;53289;45.602;11.904;2022-07-23T05:25:32;23.40;66.10
64817;DHT22;53289;45.602;11.904;2022-07-23T05:27:58;23.60;65.50
64817;DHT22;53289;45.602;11.904;2022-07-23T05:30:24;23.70;65.40
64817;DHT22;53289;45.602;11.904;2022-07-23T05:32:50;23.80;65.20
64817;DHT22;53289;45.602;11.904;2022-07-23T05:35:16;23.90;65.10
64817;DHT22;53289;45.602;11.904;2022-07-23T05:37:42;24.00;65.40
64817;DHT22;53289;45.602;11.904;2022-07-23T05:40:09;24.10;66.40
64817;DHT22;53289;45.602;11.904;2022-07-23T05:42:37;24.20;67.00
64817;DHT22;53289;45.602;11.904;2022-07-23T05:45:05;24.30;67.30
64817;DHT22;53289;45.602;11.904;2022-07-23T05:47:51;24.40;67.90
64817;DHT22;53289;45.602;11.904;2022-07-23T05:50:17;24.40;67.60
64817;DHT22;53289;45.602;11.904;2022-07-23T05:52:44;24.60;66.80
64817;DHT22;53289;45.602;11.904;2022-07-23T05:55:11;24.70;66.70
64817;DHT22;53289;45.602;11.904;2022-07-23T05:57:38;24.80;66.60
64817;DHT22;53289;45.602;11.904;2022-07-23T06:00:05;24.90;66.70
64817;DHT22;53289;45.602;11.904;2022-07-23T06:02:32;25.10;66.10
64817;DHT22;53289;45.602;11.904;2022-07-23T06:04:58;25.30;65.40
64817;DHT22;53289;45.602;11.904;2022-07-23T06:07:24;25.40;65.20
64817;DHT22;53289;45.602;11.904;2022-07-23T06:09:50;25.60;64.50
64817;DHT22;53289;45.602;11.904;2022-07-23T06:12:16;25.80;64.60
64817;DHT22;53289;45.602;11.904;2022-07-23T06:14:43;25.90;63.90
64817;DHT22;53289;45.602;11.904;2022-07-23T06:17:09;26.10;63.70
64817;DHT22;53289;45.602;11.904;2022-07-23T06:19:35;26.30;63.00
64817;DHT22;53289;45.602;11.904;2022-07-23T06:22:01;26.50;62.30
64817;DHT22;53289;45.602;11.904;2022-07-23T06:24:27;26.60;61.60
64817;DHT22;53289;45.602;11.904;2022-07-23T06:26:53;26.80;61.10
64817;DHT22;53289;45.602;11.904;2022-07-23T06:29:19;26.90;61.00
64817;DHT22;53289;45.602;11.904;2022-07-23T06:31:45;27.10;60.40
64817;DHT22;53289;45.602;11.904;2022-07-23T06:34:11;27.20;59.80
64817;DHT22;53289;45.602;11.904;2022-07-23T06:36:37;27.40;59.20
64817;DHT22;53289;45.602;11.904;2022-07-23T06:39:03;27.70;58.90
64817;DHT22;53289;45.602;11.904;2022-07-23T06:41:29;27.80;58.50
64817;DHT22;53289;45.602;11.904;2022-07-23T06:43:55;28.00;58.10
64817;DHT22;53289;45.602;11.904;2022-07-23T06:46:21;28.20;57.60
64817;DHT22;53289;45.602;11.904;2022-07-23T06:48:47;28.30;57.20
64817;DHT22;53289;45.602;11.904;2022-07-23T06:51:13;28.50;57.10
64817;DHT22;53289;45.602;11.904;2022-07-23T06:53:39;28.70;56.90
64817;DHT22;53289;45.602;11.904;2022-07-23T06:56:06;28.80;56.70
64817;DHT22;53289;45.602;11.904;2022-07-23T06:58:32;28.90;56.20
64817;DHT22;53289;45.602;11.904;2022-07-23T07:00:58;29.00;56.10
64817;DHT22;53289;45.602;11.904;2022-07-23T07:03:24;29.20;55.70
64817;DHT22;53289;45.602;11.904;2022-07-23T07:05:50;29.30;55.00
64817;DHT22;53289;45.602;11.904;2022-07-23T07:08:17;29.50;54.30
64817;DHT22;53289;45.602;11.904;2022-07-23T07:10:43;29.60;53.90
64817;DHT22;53289;45.602;11.904;2022-07-23T07:13:09;29.70;53.50
64817;DHT22;53289;45.602;11.904;2022-07-23T07:15:35;29.90;53.30
64817;DHT22;53289;45.602;11.904;2022-07-23T07:18:00;30.00;52.90
64817;DHT22;53289;45.602;11.904;2022-07-23T07:20:26;30.20;52.10
64817;DHT22;53289;45.602;11.904;2022-07-23T07:22:52;30.40;51.90
64817;DHT22;53289;45.602;11.904;2022-07-23T07:25:18;30.50;51.60
64817;DHT22;53289;45.602;11.904;2022-07-23T07:27:44;30.80;50.70
64817;DHT22;53289;45.602;11.904;2022-07-23T07:30:10;30.90;50.20
64817;DHT22;53289;45.602;11.904;2022-07-23T07:32:37;31.00;49.70
64817;DHT22;53289;45.602;11.904;2022-07-23T07:35:04;31.30;49.60
64817;DHT22;53289;45.602;11.904;2022-07-23T07:37:30;31.40;48.80
64817;DHT22;53289;45.602;11.904;2022-07-23T07:39:56;31.50;48.00
64817;DHT22;53289;45.602;11.904;2022-07-23T07:42:22;31.70;48.00
64817;DHT22;53289;45.602;11.904;2022-07-23T07:44:48;31.90;48.30
64817;DHT22;53289;45.602;11.904;2022-07-23T07:47:14;32.00;48.00
64817;DHT22;53289;45.602;11.904;2022-07-23T07:49:42;32.20;47.80
64817;DHT22;53289;45.602;11.904;2022-07-23T07:52:08;32.40;47.00
64817;DHT22;53289;45.602;11.904;2022-07-23T07:54:35;32.50;46.70
64817;DHT22;53289;45.602;11.904;2022-07-23T07:57:01;32.70;46.40
64817;DHT22;53289;45.602;11.904;2022-07-23T07:59:27;32.90;45.80
64817;DHT22;53289;45.602;11.904;2022-07-23T08:01:54;33.10;44.50
64817;DHT22;53289;45.602;11.904;2022-07-23T08:04:20;33.30;44.60
64817;DHT22;53289;45.602;11.904;2022-07-23T08:06:46;33.50;44.30
64817;DHT22;53289;45.602;11.904;2022-07-23T08:09:12;33.60;43.80
64817;DHT22;53289;45.602;11.904;2022-07-23T08:11:38;33.80;44.00
64817;DHT22;53289;45.602;11.904;2022-07-23T08:14:04;34.00;43.80
64817;DHT22;53289;45.602;11.904;2022-07-23T08:16:31;34.40;42.60
64817;DHT22;53289;45.602;11.904;2022-07-23T08:18:57;34.60;41.80
64817;DHT22;53289;45.602;11.904;2022-07-23T08:21:23;34.70;41.00
64817;DHT22;53289;45.602;11.904;2022-07-23T08:23:49;34.90;40.80
64817;DHT22;53289;45.602;11.904;2022-07-23T08:26:14;35.10;40.40
64817;DHT22;53289;45.602;11.904;2022-07-23T08:28:40;35.30;39.60
64817;DHT22;53289;45.602;11.904;2022-07-23T08:31:06;35.50;39.60
64817;DHT22;53289;45.602;11.904;2022-07-23T08:33:32;35.70;39.40
64817;DHT22;53289;45.602;11.904;2022-07-23T08:35:59;35.90;38.80
64817;DHT22;53289;45.602;11.904;2022-07-23T08:38:25;36.10;38.60
64817;DHT22;53289;45.602;11.904;2022-07-23T08:40:53;36.30;38.00
64817;DHT22;53289;45.602;11.904;2022-07-23T08:43:27;36.50;37.60
64817;DHT22;53289;45.602;11.904;2022-07-23T08:45:55;36.50;35.80
64817;DHT22;53289;45.602;11.904;2022-07-23T08:48:28;36.40;37.20
64817;DHT22;53289;45.602;11.904;2022-07-23T08:50:56;36.20;37.40
64817;DHT22;53289;45.602;11.904;2022-07-23T08:53:24;36.10;37.60
64817;DHT22;53289;45.602;11.904;2022-07-23T08:55:52;36.30;36.80
64817;DHT22;53289;45.602;11.904;2022-07-23T08:58:19;36.50;36.70
64817;DHT22;53289;45.602;11.904;2022-07-23T09:00:48;36.50;37.10
64817;DHT22;53289;45.602;11.904;2022-07-23T09:03:20;36.50;37.40
64817;DHT22;53289;45.602;11.904;2022-07-23T09:05:49;36.50;37.60
64817;DHT22;53289;45.602;11.904;2022-07-23T09:08:18;36.90;36.90
64817;DHT22;53289;45.602;11.904;2022-07-23T09:10:55;37.10;36.80
64817;DHT22;53289;45.602;11.904;2022-07-23T09:16:01;37.70;35.40
64817;DHT22;53289;45.602;11.904;2022-07-23T09:18:29;38.00;35.50
64817;DHT22;53289;45.602;11.904;2022-07-23T09:21:19;38.20;34.50
64817;DHT22;53289;45.602;11.904;2022-07-23T09:23:53;38.20;34.30
64817;DHT22;53289;45.602;11.904;2022-07-23T09:34:23;38.80;32.60
64817;DHT22;53289;45.602;11.904;2022-07-23T09:36:50;38.90;32.40
64817;DHT22;53289;45.602;11.904;2022-07-23T09:41:51;39.40;32.20
64817;DHT22;53289;45.602;11.904;2022-07-23T09:44:19;39.40;31.70
64817;DHT22;53289;45.602;11.904;2022-07-23T09:46:47;39.40;31.50
64817;DHT22;53289;45.602;11.904;2022-07-23T09:49:22;39.70;30.30
64817;DHT22;53289;45.602;11.904;2022-07-23T09:54:32;40.20;28.60
64817;DHT22;53289;45.602;11.904;2022-07-23T09:57:11;40.40;27.80
64817;DHT22;53289;45.602;11.904;2022-07-23T09:59:44;40.50;27.00
64817;DHT22;53289;45.602;11.904;2022-07-23T10:02:13;40.70;28.30
64817;DHT22;53289;45.602;11.904;2022-07-23T10:04:41;41.00;28.20
64817;DHT22;53289;45.602;11.904;2022-07-23T10:07:08;41.30;28.20
64817;DHT22;53289;45.602;11.904;2022-07-23T10:09:38;41.60;28.20
64817;DHT22;53289;45.602;11.904;2022-07-23T10:12:13;41.90;28.30
64817;DHT22;53289;45.602;11.904;2022-07-23T10:14:40;41.90;27.90
64817;DHT22;53289;45.602;11.904;2022-07-23T10:17:06;42.10;27.80
64817;DHT22;53289;45.602;11.904;2022-07-23T10:19:33;42.20;27.40
64817;DHT22;53289;45.602;11.904;2022-07-23T10:22:19;42.10;27.40
64817;DHT22;53289;45.602;11.904;2022-07-23T10:25:24;41.90;26.90
64817;DHT22;53289;45.602;11.904;2022-07-23T10:31:05;42.10;26.50
64817;DHT22;53289;45.602;11.904;2022-07-23T10:33:46;42.20;27.20
64817;DHT22;53289;45.602;11.904;2022-07-23T10:36:38;42.40;27.00
64817;DHT22;53289;45.602;11.904;2022-07-23T10:39:16;42.40;26.40
64817;DHT22;53289;45.602;11.904;2022-07-23T10:41:43;42.60;26.40
64817;DHT22;53289;45.602;11.904;2022-07-23T10:47:00;43.00;25.60
64817;DHT22;53289;45.602;11.904;2022-07-23T10:49:45;43.20;25.50
64817;DHT22;53289;45.602;11.904;2022-07-23T10:54:41;43.60;24.30
64817;DHT22;53289;45.602;11.904;2022-07-23T10:57:08;43.70;24.10
64817;DHT22;53289;45.602;11.904;2022-07-23T11:02:39;44.40;23.90
64817;DHT22;53289;45.602;11.904;2022-07-23T11:05:08;44.90;23.20
64817;DHT22;53289;45.602;11.904;2022-07-23T11:07:36;45.20;22.90
64817;DHT22;53289;45.602;11.904;2022-07-23T11:10:03;45.50;21.90
64817;DHT22;53289;45.602;11.904;2022-07-23T11:17:27;46.00;21.40
64817;DHT22;53289;45.602;11.904;2022-07-23T11:20:12;46.10;21.60
64817;DHT22;53289;45.602;11.904;2022-07-23T11:25:11;46.70;22.00
64817;DHT22;53289;45.602;11.904;2022-07-23T11:27:41;47.10;22.10
64817;DHT22;53289;45.602;11.904;2022-07-23T11:30:09;47.40;21.60
64817;DHT22;53289;45.602;11.904;2022-07-23T11:32:38;47.60;21.10
64817;DHT22;53289;45.602;11.904;2022-07-23T11:35:23;47.90;20.40
64817;DHT22;53289;45.602;11.904;2022-07-23T11:37:52;48.10;20.40
64817;DHT22;53289;45.602;11.904;2022-07-23T11:40:25;48.20;19.80
64817;DHT22;53289;45.602;11.904;2022-07-23T11:43:03;48.00;20.00
64817;DHT22;53289;45.602;11.904;2022-07-23T11:45:33;47.90;19.50
64817;DHT22;53289;45.602;11.904;2022-07-23T11:47:59;47.90;20.30
64817;DHT22;53289;45.602;11.904;2022-07-23T11:50:26;47.90;20.40
64817;DHT22;53289;45.602;11.904;2022-07-23T11:52:54;47.90;20.60
64817;DHT22;53289;45.602;11.904;2022-07-23T11:55:20;47.80;20.50
64817;DHT22;53289;45.602;11.904;2022-07-23T11:57:47;47.50;20.60
64817;DHT22;53289;45.602;11.904;2022-07-23T12:00:22;47.40;20.80
64817;DHT22;53289;45.602;11.904;2022-07-23T12:02:51;47.50;20.40
64817;DHT22;53289;45.602;11.904;2022-07-23T12:05:25;47.60;20.80
64817;DHT22;53289;45.602;11.904;2022-07-23T12:07:53;48.00;20.90
64817;DHT22;53289;45.602;11.904;2022-07-23T12:12:51;48.40;19.90
64817;DHT22;53289;45.602;11.904;2022-07-23T12:15:22;48.30;20.70
64817;DHT22;53289;45.602;11.904;2022-07-23T12:17:50;48.40;20.70
64817;DHT22;53289;45.602;11.904;2022-07-23T12:20:20;48.40;20.40
64817;DHT22;53289;45.602;11.904;2022-07-23T12:22:48;48.20;21.00
64817;DHT22;53289;45.602;11.904;2022-07-23T12:25:20;47.80;20.90
64817;DHT22;53289;45.602;11.904;2022-07-23T12:27:57;47.90;20.30
64817;DHT22;53289;45.602;11.904;2022-07-23T12:30:24;47.90;19.50
64817;DHT22;53289;45.602;11.904;2022-07-23T12:32:54;48.10;19.50
64817;DHT22;53289;45.602;11.904;2022-07-23T12:35:22;48.40;19.10
64817;DHT22;53289;45.602;11.904;2022-07-23T12:37:50;48.80;19.20
64817;DHT22;53289;45.602;11.904;2022-07-23T12:40:26;49.00;19.00
64817;DHT22;53289;45.602;11.904;2022-07-23T12:42:56;48.90;19.30
64817;DHT22;53289;45.602;11.904;2022-07-23T12:45:23;48.80;19.40
64817;DHT22;53289;45.602;11.904;2022-07-23T12:50:59;48.00;19.70
64817;DHT22;53289;45.602;11.904;2022-07-23T12:53:42;47.60;19.50
64817;DHT22;53289;45.602;11.904;2022-07-23T12:56:12;47.40;19.70
64817;DHT22;53289;45.602;11.904;2022-07-23T13:04:17;47.90;20.40
64817;DHT22;53289;45.602;11.904;2022-07-23T13:06:58;47.70;20.50
64817;DHT22;53289;45.602;11.904;2022-07-23T13:09:28;47.40;20.70
64817;DHT22;53289;45.602;11.904;2022-07-23T13:11:56;47.50;20.90
64817;DHT22;53289;45.602;11.904;2022-07-23T13:14:24;47.70;20.20
64817;DHT22;53289;45.602;11.904;2022-07-23T13:16:52;47.80;19.70
64817;DHT22;53289;45.602;11.904;2022-07-23T13:19:19;47.70;19.90
64817;DHT22;53289;45.602;11.904;2022-07-23T13:21:45;47.80;19.60
64817;DHT22;53289;45.602;11.904;2022-07-23T13:24:12;47.70;19.30
64817;DHT22;53289;45.602;11.904;2022-07-23T13:26:39;47.30;20.00
64817;DHT22;53289;45.602;11.904;2022-07-23T13:29:06;46.90;20.50
64817;DHT22;53289;45.602;11.904;2022-07-23T13:31:33;46.80;20.80
64817;DHT22;53289;45.602;11.904;2022-07-23T13:33:59;46.90;20.70
64817;DHT22;53289;45.602;11.904;2022-07-23T13:36:25;47.20;20.90
64817;DHT22;53289;45.602;11.904;2022-07-23T13:38:51;47.40;21.00
64817;DHT22;53289;45.602;11.904;2022-07-23T13:41:18;47.60;21.40
64817;DHT22;53289;45.602;11.904;2022-07-23T13:43:44;47.30;21.40
64817;DHT22;53289;45.602;11.904;2022-07-23T13:46:10;46.60;21.70
64817;DHT22;53289;45.602;11.904;2022-07-23T13:48:36;46.30;21.70
64817;DHT22;53289;45.602;11.904;2022-07-23T13:51:02;45.90;21.90
64817;DHT22;53289;45.602;11.904;2022-07-23T13:53:29;45.40;23.10
64817;DHT22;53289;45.602;11.904;2022-07-23T13:55:55;45.50;23.50
64817;DHT22;53289;45.602;11.904;2022-07-23T13:58:21;45.40;23.90
64817;DHT22;53289;45.602;11.904;2022-07-23T14:00:50;45.60;23.50
64817;DHT22;53289;45.602;11.904;2022-07-23T14:03:18;45.60;23.70
64817;DHT22;53289;45.602;11.904;2022-07-23T14:05:44;45.50;23.60
64817;DHT22;53289;45.602;11.904;2022-07-23T14:08:11;45.00;24.00
64817;DHT22;53289;45.602;11.904;2022-07-23T14:10:37;45.00;24.30
64817;DHT22;53289;45.602;11.904;2022-07-23T14:13:04;45.00;24.40
64817;DHT22;53289;45.602;11.904;2022-07-23T14:15:31;45.00;24.40
64817;DHT22;53289;45.602;11.904;2022-07-23T14:17:57;45.10;24.50
64817;DHT22;53289;45.602;11.904;2022-07-23T14:20:24;45.00;24.50
64817;DHT22;53289;45.602;11.904;2022-07-23T14:22:51;44.80;24.60
64817;DHT22;53289;45.602;11.904;2022-07-23T14:25:18;44.90;25.10
64817;DHT22;53289;45.602;11.904;2022-07-23T14:27:44;44.90;25.10
64817;DHT22;53289;45.602;11.904;2022-07-23T14:30:12;44.90;24.80
64817;DHT22;53289;45.602;11.904;2022-07-23T14:32:40;45.10;24.90
64817;DHT22;53289;45.602;11.904;2022-07-23T14:35:07;45.20;24.70
64817;DHT22;53289;45.602;11.904;2022-07-23T14:37:33;45.10;24.80
64817;DHT22;53289;45.602;11.904;2022-07-23T14:39:59;45.00;24.90
64817;DHT22;53289;45.602;11.904;2022-07-23T14:42:25;44.90;25.00
64817;DHT22;53289;45.602;11.904;2022-07-23T14:44:51;44.70;25.40
64817;DHT22;53289;45.602;11.904;2022-07-23T14:47:20;44.50;25.50
64817;DHT22;53289;45.602;11.904;2022-07-23T14:49:49;44.40;25.80
64817;DHT22;53289;45.602;11.904;2022-07-23T14:52:15;44.30;25.80
64817;DHT22;53289;45.602;11.904;2022-07-23T14:54:42;44.20;26.10
64817;DHT22;53289;45.602;11.904;2022-07-23T14:57:08;43.90;26.10
64817;DHT22;53289;45.602;11.904;2022-07-23T14:59:35;43.80;26.00
64817;DHT22;53289;45.602;11.904;2022-07-23T15:02:01;43.60;26.20
64817;DHT22;53289;45.602;11.904;2022-07-23T15:04:27;43.70;25.80
64817;DHT22;53289;45.602;11.904;2022-07-23T15:06:53;43.70;25.90
64817;DHT22;53289;45.602;11.904;2022-07-23T15:09:20;43.70;25.70
64817;DHT22;53289;45.602;11.904;2022-07-23T15:11:45;43.80;25.70
64817;DHT22;53289;45.602;11.904;2022-07-23T15:14:11;43.90;25.80
64817;DHT22;53289;45.602;11.904;2022-07-23T15:16:37;43.90;25.60
64817;DHT22;53289;45.602;11.904;2022-07-23T15:19:04;43.70;25.90
64817;DHT22;53289;45.602;11.904;2022-07-23T15:21:30;43.40;26.20
64817;DHT22;53289;45.602;11.904;2022-07-23T15:23:57;43.20;25.80
64817;DHT22;53289;45.602;11.904;2022-07-23T15:26:28;42.80;26.40
64817;DHT22;53289;45.602;11.904;2022-07-23T15:28:55;42.50;26.80
64817;DHT22;53289;45.602;11.904;2022-07-23T15:31:22;42.20;27.00
64817;DHT22;53289;45.602;11.904;2022-07-23T15:33:48;41.70;27.30
64817;DHT22;53289;45.602;11.904;2022-07-23T15:36:16;41.70;27.30
64817;DHT22;53289;45.602;11.904;2022-07-23T15:38:42;41.60;27.10
64817;DHT22;53289;45.602;11.904;2022-07-23T15:41:08;41.30;27.50
64817;DHT22;53289;45.602;11.904;2022-07-23T15:43:34;41.00;27.80
64817;DHT22;53289;45.602;11.904;2022-07-23T15:46:00;40.90;28.20
64817;DHT22;53289;45.602;11.904;2022-07-23T15:48:26;40.50;28.70
64817;DHT22;53289;45.602;11.904;2022-07-23T15:50:52;40.50;28.60
64817;DHT22;53289;45.602;11.904;2022-07-23T15:53:19;40.20;28.50
64817;DHT22;53289;45.602;11.904;2022-07-23T15:55:45;40.20;28.50
64817;DHT22;53289;45.602;11.904;2022-07-23T15:58:11;40.20;28.50
64817;DHT22;53289;45.602;11.904;2022-07-23T16:00:37;40.00;28.50
64817;DHT22;53289;45.602;11.904;2022-07-23T16:03:04;39.90;28.70